Air Navigation Services of Czech Republic
Airport: LKKV Updated:  25.03.2019 22:01:06  UTC
 METAR LKKV 25.03. 22:00 ...
METAR LKKV 252200Z 32007KT 9999 BKN033 01/M01 Q1021 RMK REG QNH 1014=
 TAF LKKV 25.03. 17:00 ...
TAF LKKV 251700Z 2518/2700 30008KT 9999 BKN015      TEMPO 2518/2618 2500 SHSNRA OVC007      PROB30 TEMPO 2518/2520 31014G28KT 1400 SHSNRA BKN004TCU      TEMPO 2610/2618 31012G24KT      BECMG 2621/2700 5000 BR=